Airport ID:KSMD
Update Time (UTC):23/06/2021 21:36
Wind Speed (Knots):11
Wind Direction (Magnetic):180
Temperature (°C):23.9
Dew Point (°C):9.8
Humidity (%):41.5
Altimeter (inHg):30.13
Density Altitude (Feet):02000
Visibility (Miles):9
Clouds (Hundreds of feet):FEW100
Present Weather:
METAR:METAR KSMD 232135Z AUTO 17011G17KT 9SM FEW100 24/10 A3013 RMK A01

The data displayed is for advisory purposes only and is not to be used for flight planning or operations.